Terminal Aerodrome Forecast
Issued by NWS Upton, NY

Home | Current Version | Previous Version | Text Only | Print | Product List | Glossary On
Versions: 1 2 3 4 5 6 7 8 9 10 11 12 13 14 15 16 17 18 19 20 21 22 23 24 25 26 27 28 29
000
FTUS41 KOKX 030550
TAFJFK
TAF
KJFK 030550Z 0306/0412 VRB04KT 6SM -RA BR SCT025 OVC100
      TEMPO 0306/0308 4SM -RA BR BKN025
     FM030800 VRB05KT 3SM RA BR SCT005 BKN015
      TEMPO 0308/0312 2SM +RA BR BKN005
     FM031200 06009KT 4SM -RA BR OVC015
     FM031600 04009KT 6SM -DZ BR BKN010 OVC040
     FM040000 VRB05KT P6SM BKN025
     FM040800 08006KT P6SM BKN015 OVC030=

USA.gov is the U.S. government's official web portal to all federal, state and local government web resources and services.